TimeEST,TemperatureF,Dew PointF,Humidity,Sea Level PressureIn,VisibilityMPH,Wind Direction,Wind SpeedMPH,Gust SpeedMPH,PrecipitationIn,Events,Conditions,WindDirDegrees,DateUTC
12:54 AM,57.9,50.0,75,30.27,10.0,North,17.3,24.2,N/A,,Overcast,10,2012-11-19 05:54:00
1:54 AM,57.9,51.1,78,30.25,10.0,North,16.1,24.2,N/A,,Overcast,10,2012-11-19 06:54:00
2:54 AM,57.9,51.1,78,30.24,10.0,North,18.4,-,N/A,,Overcast,360,2012-11-19 07:54:00
3:19 AM,57.2,51.8,82,30.23,10.0,North,21.9,28.8,N/A,,Overcast,10,2012-11-19 08:19:00
3:54 AM,57.9,51.1,78,30.22,9.0,North,20.7,26.5,0.00,,Overcast,360,2012-11-19 08:54:00
4:54 AM,57.0,50.0,77,30.23,10.0,North,19.6,27.6,N/A,,Overcast,10,2012-11-19 09:54:00
5:54 AM,57.0,50.0,77,30.23,10.0,North,20.7,29.9,N/A,,Overcast,360,2012-11-19 10:54:00
6:54 AM,57.9,51.1,78,30.23,10.0,North,20.7,27.6,N/A,,Overcast,360,2012-11-19 11:54:00
7:54 AM,55.9,51.1,84,30.24,10.0,North,13.8,25.3,0.00,,Overcast,350,2012-11-19 12:54:00
8:54 AM,55.9,50.0,80,30.24,9.0,North,16.1,-,N/A,,Overcast,350,2012-11-19 13:54:00
9:42 AM,55.4,50.0,82,30.23,9.0,North,20.7,25.3,N/A,,Overcast,350,2012-11-19 14:42:00
9:54 AM,55.9,50.0,80,30.23,9.0,North,18.4,-,N/A,,Overcast,360,2012-11-19 14:54:00
10:54 AM,57.9,51.1,78,30.21,10.0,North,19.6,25.3,N/A,,Overcast,350,2012-11-19 15:54:00
11:54 AM,57.9,51.1,78,30.19,9.0,North,18.4,26.5,0.00,Rain,Light Rain,10,2012-11-19 16:54:00
12:54 PM,59.0,52.0,78,30.17,9.0,North,23.0,29.9,0.00,,Overcast,360,2012-11-19 17:54:00
1:54 PM,57.0,51.1,81,30.16,8.0,North,17.3,25.3,N/A,,Overcast,350,2012-11-19 18:54:00
2:54 PM,55.9,50.0,80,30.16,9.0,North,20.7,27.6,N/A,,Overcast,360,2012-11-19 19:54:00
3:54 PM,54.0,48.9,83,30.16,6.0,North,19.6,27.6,N/A,,Haze,350,2012-11-19 20:54:00
4:54 PM,53.1,48.0,83,30.16,6.0,North,19.6,26.5,N/A,,Haze,350,2012-11-19 21:54:00
5:54 PM,54.0,48.0,80,30.16,8.0,North,17.3,23.0,N/A,,Overcast,10,2012-11-19 22:54:00
6:54 PM,54.0,48.9,83,30.16,7.0,North,16.1,24.2,N/A,,Overcast,360,2012-11-19 23:54:00
7:54 PM,53.1,48.0,83,30.17,6.0,North,16.1,-,N/A,,Haze,350,2012-11-20 00:54:00
8:54 PM,53.1,48.0,83,30.17,4.0,North,17.3,-,N/A,,Haze,350,2012-11-20 01:54:00
9:54 PM,53.1,48.0,83,30.16,5.0,North,13.8,-,N/A,,Haze,350,2012-11-20 02:54:00
10:54 PM,53.1,48.0,83,30.13,7.0,North,15.0,-,N/A,,Overcast,10,2012-11-20 03:54:00
11:54 PM,53.1,48.0,83,30.12,5.0,North,16.1,-,N/A,,Haze,360,2012-11-20 04:54:00